Pagrindinis puslapis
METAR-TAF:

METAR-TAF

Oro uostai :

Hévíz, Vengrija

platuma: 46-41-11N, ilguma: 017-09-33E, Aukštis: 124 m

Dabartinis oras

Ataskaita buvo paskelbta 44 minutes, ne 04:15 UTC
Vėjas 2 kt nuo kintamojo kryptimis
Temperatūra 15°C
Drėgmė 94%
Slėgis 1009 hPa
Matomumas 10 km arba daugiau
Su prošvaistėmis ne aukštis 2300 ft
Su prošvaistėmis ne aukštis 8400 ft

METAR: LHSM 220415Z AUTO VRB02KT 9999 BKN023 BKN084 15/14 Q1009

Laikas: 06:59 (04:59 UTC)

Prognozė

Ataskaita buvo paskelbta 11 valandos ir 44 minutes, ne 17:15 UTC
Prognozė galioja nuo 21 metu 18 UTC su 22 metu 03 UTC
Vėjas 5 kt iš Pietryčių
Matomumas 10 km arba daugiau
nėra debesų žemiau 1500 m ir nėra kamuolinių lietaus debesų
Laikinai
nuo 21 metu 18 UTC su 21 metu 22 UTC
Vėjas 15 kt nuo kintamojo kryptimis su gūsio iki 25 kt
Matomumas: 7000 m
Išsisklaidę debesys ne aukštis 4000 ft, Liūtiniai kamuoliniai debesys.
Su prošvaistėmis ne aukštis 5000 ft
lietus, perkūnija, lietus,

TAF: LHSM 211715Z 2118/2203 13005KT CAVOK TEMPO 2118/2122 VRB15G25KT 7000 SHRA -TSRA SCT040CB BKN050

Orai ataskaitas ir orų prognozės (METAR, TAF).

turimą stotys yra geltonos ir raudonos taškus žemėlapyje.

Perkelti pele per norėdami pamatyti stoties vardą.

Tada spustelėkite, norėdami matyti oro stebėjimo ir prognozės.

Norėdami pakeisti žemėlapį: spustelėkite ant žalios mygtukų su juodo kryžiaus žemyn,; žalią mygtuką su brūkšneliu, jei norite nutolinti; arba žalių rodyklių gretimoms žemėlapius.


METAR-TAF: